createdAt,value
2023-03-06T00:02:55.010Z,52.70
2023-03-06T00:07:58.139Z,52.80
2023-03-06T00:13:04.142Z,52.90
2023-03-06T00:18:07.636Z,52.90
2023-03-06T00:23:10.709Z,52.80
2023-03-06T00:28:15.850Z,52.80
2023-03-06T00:33:18.983Z,52.70
2023-03-06T00:38:21.939Z,52.60
2023-03-06T00:57:25.826Z,52.90
2023-03-06T01:02:28.842Z,52.70
2023-03-06T01:07:33.948Z,52.70
2023-03-06T01:12:38.161Z,52.90
2023-03-06T01:17:41.528Z,52.90
2023-03-06T01:22:45.572Z,53.20
2023-03-06T01:27:49.806Z,53.00
2023-03-06T01:32:53.072Z,53.10
2023-03-06T01:37:55.983Z,53.10
2023-03-06T01:43:06.593Z,53.20
2023-03-06T01:48:09.458Z,53.30
2023-03-06T01:53:13.569Z,53.30
2023-03-06T01:58:19.959Z,53.30
2023-03-06T02:03:26.600Z,53.30
2023-03-06T02:08:30.019Z,53.30
2023-03-06T02:13:34.431Z,53.30
2023-03-06T02:18:39.206Z,53.40
2023-03-06T02:23:49.851Z,53.40
2023-03-06T02:28:54.406Z,53.40
2023-03-06T02:34:07.310Z,53.30
2023-03-06T02:39:11.426Z,53.50
2023-03-06T02:44:16.023Z,53.30
2023-03-06T02:49:19.234Z,53.30
2023-03-06T02:54:22.250Z,53.30
2023-03-06T02:59:27.634Z,53.30
2023-03-06T03:04:32.513Z,53.40
2023-03-06T03:09:37.202Z,53.50
2023-03-06T03:14:42.207Z,53.50
2023-03-06T03:19:45.255Z,53.70
2023-03-06T03:24:48.668Z,53.70
2023-03-06T03:29:53.133Z,53.70
2023-03-06T03:34:57.116Z,53.80
2023-03-06T03:40:01.891Z,53.70
2023-03-06T03:45:09.644Z,53.70
2023-03-06T03:50:13.873Z,53.80
2023-03-06T03:55:17.716Z,53.80
2023-03-06T04:00:22.782Z,53.80
2023-03-06T04:05:39.974Z,53.90
2023-03-06T04:10:44.708Z,53.90
2023-03-06T04:15:52.934Z,53.90
2023-03-06T04:20:57.412Z,54.00
2023-03-06T04:26:00.780Z,54.00
2023-03-06T04:31:06.215Z,54.10
2023-03-06T04:36:15.806Z,54.20
2023-03-06T04:41:18.994Z,54.30
2023-03-06T04:46:23.418Z,54.40
2023-03-06T04:51:26.401Z,54.60
2023-03-06T04:56:29.782Z,54.40
2023-03-06T05:01:34.050Z,54.50
2023-03-06T05:06:37.414Z,54.40
2023-03-06T05:11:40.315Z,54.50
2023-03-06T05:16:44.771Z,54.40
2023-03-06T05:21:47.739Z,54.40
2023-03-06T05:26:51.039Z,54.40
2023-03-06T05:31:55.990Z,54.50
2023-03-06T05:36:59.078Z,54.50
2023-03-06T05:42:02.231Z,54.50
2023-03-06T05:47:06.800Z,54.50
2023-03-06T05:52:10.146Z,54.50
2023-03-06T05:57:13.176Z,54.50
2023-03-06T06:02:17.825Z,54.50
2023-03-06T06:07:20.811Z,54.60
2023-03-06T06:12:23.882Z,54.50
2023-03-06T06:17:28.251Z,54.60
2023-03-06T06:22:31.169Z,54.60
2023-03-06T06:27:34.150Z,54.70
2023-03-06T06:32:39.047Z,54.80
2023-03-06T06:37:42.009Z,55.00
2023-03-06T06:42:46.538Z,54.90
2023-03-06T06:47:51.973Z,55.00
2023-03-06T06:52:55.033Z,55.00
2023-03-06T06:57:57.986Z,55.10
2023-03-06T07:03:02.215Z,55.00
2023-03-06T07:08:05.201Z,55.10
2023-03-06T07:13:08.109Z,55.20
2023-03-06T07:18:12.446Z,55.20
2023-03-06T07:23:15.408Z,55.30
2023-03-06T07:28:19.571Z,55.40
2023-03-06T07:33:24.040Z,55.40
2023-03-06T07:38:27.171Z,55.40
2023-03-06T07:43:30.115Z,55.50
2023-03-06T07:48:39.673Z,55.60
2023-03-06T07:53:42.891Z,55.90
2023-03-06T07:58:47.337Z,55.80
2023-03-06T08:03:52.264Z,55.90
2023-03-06T08:08:58.231Z,55.90
2023-03-06T08:14:01.714Z,55.90
2023-03-06T08:19:06.070Z,55.90
2023-03-06T08:24:09.257Z,56.00
2023-03-06T08:29:12.480Z,56.00
2023-03-06T08:34:19.036Z,56.10
2023-03-06T08:39:23.668Z,56.30
2023-03-06T08:44:26.731Z,56.30
2023-03-06T08:49:31.359Z,56.30
2023-03-06T08:54:35.753Z,56.50
2023-03-06T08:59:38.798Z,56.40
2023-03-06T09:04:43.187Z,56.50
2023-03-06T09:09:46.192Z,56.40
2023-03-06T09:14:49.231Z,56.30
2023-03-06T09:19:53.631Z,56.20
2023-03-06T09:24:56.639Z,56.30
2023-03-06T09:30:00.281Z,56.40
2023-03-06T09:35:04.858Z,56.60
2023-03-06T09:40:08.746Z,56.60
2023-03-06T09:45:13.084Z,56.60
2023-03-06T09:50:27.447Z,56.70
2023-03-06T09:55:33.626Z,57.00
2023-03-06T10:00:40.564Z,57.10
2023-03-06T10:05:48.281Z,57.20
2023-03-06T10:10:57.366Z,57.30
2023-03-06T10:16:09.628Z,57.10
2023-03-06T10:21:27.112Z,57.20
2023-03-06T10:26:38.473Z,56.90
2023-03-06T10:31:49.522Z,56.70
2023-03-06T10:36:53.978Z,56.40
2023-03-06T10:41:56.997Z,56.00
2023-03-06T10:46:59.865Z,55.90
2023-03-06T10:52:06.758Z,55.90
2023-03-06T10:57:22.431Z,55.80
2023-03-06T11:02:28.344Z,56.00
2023-03-06T11:07:33.505Z,56.10
2023-03-06T11:12:38.285Z,56.30
2023-03-06T11:17:51.216Z,55.90
2023-03-06T11:23:00.524Z,55.70
2023-03-06T11:28:08.353Z,56.10
2023-03-06T11:33:23.484Z,54.90
2023-03-06T11:38:36.701Z,54.70
2023-03-06T11:43:53.855Z,55.10
2023-03-06T11:49:02.660Z,55.20
2023-03-06T11:54:09.574Z,55.00
2023-03-06T11:59:26.591Z,55.20
2023-03-06T12:04:42.374Z,55.30
2023-03-06T12:09:54.080Z,55.20
2023-03-06T12:15:16.857Z,54.80
2023-03-06T12:20:41.060Z,54.30
2023-03-06T12:25:52.498Z,54.30
2023-03-06T12:31:16.306Z,54.50
2023-03-06T12:36:34.139Z,54.30
2023-03-06T12:41:48.244Z,54.60
2023-03-06T12:46:55.950Z,54.40
2023-03-06T12:52:00.516Z,54.30
2023-03-06T12:57:08.358Z,54.50
2023-03-06T13:02:55.755Z,53.90
2023-03-06T13:08:24.952Z,53.90
2023-03-06T13:13:33.379Z,52.70
2023-03-06T13:19:04.957Z,52.20
2023-03-06T13:24:21.167Z,52.10
2023-03-06T13:29:50.736Z,51.30
2023-03-06T13:34:53.853Z,51.50
2023-03-06T13:40:15.430Z,51.80
2023-03-06T13:45:25.704Z,51.40
2023-03-06T13:50:36.700Z,51.40
2023-03-06T13:55:51.460Z,50.70
2023-03-06T14:01:10.760Z,50.90
2023-03-06T14:06:43.105Z,50.80
2023-03-06T14:11:51.558Z,50.50
2023-03-06T14:16:56.899Z,50.70
2023-03-06T14:22:00.998Z,50.70
2023-03-06T14:27:04.417Z,50.90
2023-03-06T14:32:12.217Z,50.90
2023-03-06T14:37:22.743Z,51.00
2023-03-06T14:42:27.342Z,50.90
2023-03-06T14:47:33.140Z,51.00
2023-03-06T14:52:36.908Z,50.90
2023-03-06T14:57:39.936Z,50.90
2023-03-06T15:02:45.844Z,51.00
2023-03-06T15:07:50.125Z,50.90
2023-03-06T15:12:53.193Z,51.10
2023-03-06T15:17:57.703Z,51.20
2023-03-06T15:23:00.705Z,50.70
2023-03-06T15:28:23.673Z,50.80
2023-03-06T15:33:28.122Z,50.70
2023-03-06T15:38:36.166Z,50.60
2023-03-06T15:43:41.018Z,50.50
2023-03-06T15:48:54.906Z,50.60
2023-03-06T15:54:09.910Z,50.60
2023-03-06T15:59:20.975Z,51.40
2023-03-06T16:04:25.321Z,50.70
2023-03-06T16:09:28.270Z,50.70
2023-03-06T16:14:31.328Z,50.80
2023-03-06T16:19:35.625Z,50.90
2023-03-06T16:24:38.723Z,51.00
2023-03-06T16:29:41.702Z,51.10
2023-03-06T16:34:46.114Z,51.10
2023-03-06T16:39:49.504Z,51.10
2023-03-06T16:44:52.471Z,51.20
2023-03-06T16:49:58.107Z,51.20
2023-03-06T16:55:01.180Z,51.50
2023-03-06T17:00:06.504Z,51.30
2023-03-06T17:05:12.860Z,51.30
2023-03-06T17:10:17.675Z,51.30
2023-03-06T17:15:21.028Z,51.50
2023-03-06T17:20:25.299Z,51.50
2023-03-06T17:25:28.306Z,51.50
2023-03-06T17:30:31.400Z,51.40
2023-03-06T17:35:37.122Z,51.50
2023-03-06T17:40:40.254Z,51.50
2023-03-06T17:45:43.206Z,51.50
2023-03-06T17:50:55.085Z,51.50
2023-03-06T17:55:58.922Z,51.50
2023-03-06T18:01:09.680Z,51.60
2023-03-06T18:06:14.128Z,51.70
2023-03-06T18:11:17.484Z,51.50
2023-03-06T18:16:22.840Z,51.50
2023-03-06T18:21:27.437Z,51.50
2023-03-06T18:26:31.084Z,51.50
2023-03-06T18:31:35.767Z,51.50
2023-03-06T18:37:05.362Z,51.60
2023-03-06T18:42:08.858Z,51.60
2023-03-06T18:47:11.767Z,51.70
2023-03-06T18:52:16.011Z,51.60
2023-03-06T18:57:18.913Z,51.80
2023-03-06T19:02:21.906Z,51.70
2023-03-06T19:07:26.539Z,51.70
2023-03-06T19:12:29.744Z,51.70
2023-03-06T19:17:32.687Z,51.70
2023-03-06T19:22:37.103Z,51.70
2023-03-06T19:27:40.047Z,51.80
2023-03-06T19:32:46.502Z,51.80
2023-03-06T19:37:51.312Z,51.80
2023-03-06T19:42:54.384Z,51.90
2023-03-06T19:48:00.749Z,51.80
2023-03-06T19:53:05.467Z,51.70
2023-03-06T19:58:08.963Z,51.60
2023-03-06T20:03:11.877Z,51.60
2023-03-06T20:08:16.171Z,51.60
2023-03-06T20:13:19.114Z,51.60
2023-03-06T20:18:22.074Z,51.60
2023-03-06T20:23:26.556Z,51.60
2023-03-06T20:28:29.577Z,51.60
2023-03-06T20:33:32.622Z,51.60
2023-03-06T20:38:37.003Z,51.50
2023-03-06T20:43:39.906Z,51.50
2023-03-06T20:48:44.297Z,51.50
2023-03-06T20:53:50.097Z,51.50
2023-03-06T20:58:53.680Z,51.40
2023-03-06T21:03:57.736Z,51.50
2023-03-06T21:09:02.326Z,51.40
2023-03-06T21:14:05.424Z,51.40
2023-03-06T21:19:09.544Z,51.20
2023-03-06T21:24:13.824Z,51.30
2023-03-06T21:29:16.765Z,51.40
2023-03-06T21:34:19.662Z,51.40
2023-03-06T21:39:23.915Z,51.40
2023-03-06T21:44:26.865Z,51.30
2023-03-06T21:49:36.672Z,51.40
2023-03-06T21:54:41.325Z,51.40
2023-03-06T21:59:44.214Z,51.30
2023-03-06T22:04:50.936Z,51.30
2023-03-06T22:09:56.158Z,51.40
2023-03-06T22:14:59.114Z,51.40
2023-03-06T22:20:02.244Z,51.30
2023-03-06T22:25:07.530Z,51.40
2023-03-06T22:30:11.715Z,51.40
2023-03-06T22:35:14.708Z,51.50
2023-03-06T22:40:19.308Z,51.50
2023-03-06T22:45:22.198Z,51.60
2023-03-06T22:50:25.091Z,51.60
2023-03-06T22:55:29.340Z,51.80
2023-03-06T23:00:32.254Z,51.80
2023-03-06T23:05:35.200Z,52.00
2023-03-06T23:10:40.266Z,52.00
2023-03-06T23:16:03.199Z,52.10
2023-03-06T23:21:25.430Z,52.00
2023-03-06T23:26:48.414Z,52.10
2023-03-06T23:31:51.381Z,52.20
2023-03-06T23:36:54.371Z,52.20
2023-03-06T23:42:01.349Z,52.40
2023-03-06T23:47:04.330Z,52.40
2023-03-06T23:52:07.243Z,52.70
2023-03-06T23:57:11.493Z,52.80
